Time;durP1;ratioP1;P1;durP2;ratioP2;P2;SDS_P1;SDS_P2;PMS_P1;PMS_P2;Temp;Humidity;BMP_temperature;BMP_pressure;BME280_temperature;BME280_humidity;BME280_pressure;Samples;Min_cycle;Max_cycle;Signal;HPM_P1;HPM_P2
2021/05/29 00:02:05;;;;;;;7.32;6.72;;;;;;;;;;5070439;28;20021;-69
2021/05/29 00:04:31;;;;;;;8.38;7.07;;;;;;;;;;5071599;28;20025;-69
2021/05/29 00:06:56;;;;;;;9.15;6.95;;;;;;;;;;5066744;28;20020;-69
2021/05/29 00:09:21;;;;;;;8.40;7.60;;;;;;;;;;5069729;28;20017;-69
2021/05/29 00:11:46;;;;;;;8.20;7.40;;;;;;;;;;5071176;28;20021;-69
2021/05/29 00:14:12;;;;;;;8.38;7.43;;;;;;;;;;5071288;28;20460;-68
2021/05/29 00:16:37;;;;;;;8.63;7.57;;;;;;;;;;5069137;28;20112;-68
2021/05/29 00:19:03;;;;;;;8.52;7.22;;;;;;;;;;5068464;28;20430;-69
2021/05/29 00:21:28;;;;;;;7.45;6.40;;;;;;;;;;5068633;28;20048;-69
2021/05/29 00:23:53;;;;;;;7.50;6.80;;;;;;;;;;5070665;28;20423;-69
2021/05/29 00:26:18;;;;;;;8.80;6.70;;;;;;;;;;5068495;28;20392;-68
2021/05/29 00:28:43;;;;;;;6.95;6.25;;;;;;;;;;5067809;28;20457;-69
2021/05/29 00:31:09;;;;;;;6.30;5.70;;;;;;;;;;5070786;28;20074;-69
2021/05/29 00:33:34;;;;;;;6.95;6.10;;;;;;;;;;5067988;28;20024;-70
2021/05/29 00:35:59;;;;;;;7.15;5.57;;;;;;;;;;5069188;28;20086;-69
2021/05/29 00:38:25;;;;;;;10.05;4.90;;;;;;;;;;5065938;28;20060;-69
2021/05/29 00:40:50;;;;;;;8.32;5.47;;;;;;;;;;5069986;28;20482;-69
2021/05/29 00:43:15;;;;;;;6.00;5.40;;;;;;;;;;5069313;28;20436;-70
2021/05/29 00:45:40;;;;;;;6.40;5.38;;;;;;;;;;5070185;28;20518;-69
2021/05/29 00:48:06;;;;;;;6.57;5.60;;;;;;;;;;5067827;28;20036;-69
2021/05/29 00:50:31;;;;;;;7.35;4.50;;;;;;;;;;5070329;28;20024;-69
2021/05/29 00:52:57;;;;;;;5.18;3.85;;;;;;;;;;5073380;28;20499;-69
2021/05/29 00:55:23;;;;;;;8.55;6.03;;;;;;;;;;5072696;28;20039;-67
2021/05/29 00:57:50;;;;;;;7.25;5.90;;;;;;;;;;5071190;28;20103;-68
2021/05/29 01:00:18;;;;;;;6.95;5.57;;;;;;;;;;5073003;28;20527;-68
2021/05/29 01:02:43;;;;;;;8.98;5.97;;;;;;;;;;5075052;28;20427;-69
2021/05/29 01:05:10;;;;;;;6.93;6.20;;;;;;;;;;5073477;28;20115;-68
2021/05/29 01:07:35;;;;;;;7.60;6.18;;;;;;;;;;5069878;28;20198;-68
2021/05/29 01:10:02;;;;;;;6.80;5.53;;;;;;;;;;5072984;28;20117;-68
2021/05/29 01:12:27;;;;;;;7.22;6.47;;;;;;;;;;5072216;28;20024;-69
2021/05/29 01:14:58;;;;;;;6.65;5.95;;;;;;;;;;5071002;28;20032;-68
2021/05/29 01:17:24;;;;;;;6.90;6.20;;;;;;;;;;5069225;28;20539;-67
2021/05/29 01:19:50;;;;;;;10.10;6.70;;;;;;;;;;5072710;28;20028;-69
2021/05/29 01:22:33;;;;;;;8.82;7.65;;;;;;;;;;5073855;28;20151;-69
2021/05/29 01:24:58;;;;;;;10.55;8.23;;;;;;;;;;5073896;28;20024;-68
2021/05/29 01:27:24;;;;;;;10.48;7.82;;;;;;;;;;5069879;28;20025;-68
2021/05/29 01:29:49;;;;;;;11.48;8.98;;;;;;;;;;5073834;28;20467;-68
2021/05/29 01:32:19;;;;;;;9.73;8.60;;;;;;;;;;5073028;28;20031;-69
2021/05/29 01:34:44;;;;;;;10.88;8.98;;;;;;;;;;5072353;28;20029;-69
2021/05/29 01:37:10;;;;;;;11.07;8.55;;;;;;;;;;5068994;28;20100;-68
2021/05/29 01:39:35;;;;;;;11.23;9.32;;;;;;;;;;5072434;28;20052;-68
2021/05/29 01:42:00;;;;;;;10.90;7.80;;;;;;;;;;5072948;28;20099;-68
2021/05/29 01:44:25;;;;;;;9.80;7.80;;;;;;;;;;5086977;28;20074;-68
2021/05/29 01:46:52;;;;;;;9.45;8.05;;;;;;;;;;5070716;28;20189;-68
2021/05/29 01:49:17;;;;;;;10.02;8.45;;;;;;;;;;5069882;28;20021;-69
2021/05/29 01:51:43;;;;;;;11.38;8.15;;;;;;;;;;5072760;28;20107;-68
2021/05/29 01:54:08;;;;;;;9.60;7.95;;;;;;;;;;5071947;28;20540;-68
2021/05/29 01:56:33;;;;;;;8.55;7.47;;;;;;;;;;5071095;28;20501;-67
2021/05/29 01:58:59;;;;;;;10.57;7.68;;;;;;;;;;5067274;28;20012;-68
2021/05/29 02:01:24;;;;;;;8.45;7.10;;;;;;;;;;5070820;28;20460;-68
2021/05/29 02:03:49;;;;;;;9.13;7.32;;;;;;;;;;5073902;28;20104;-67
2021/05/29 02:06:15;;;;;;;10.70;8.50;;;;;;;;;;5070328;28;20024;-69
2021/05/29 02:08:41;;;;;;;10.43;7.68;;;;;;;;;;5066112;28;20025;-69
2021/05/29 02:11:06;;;;;;;10.20;8.25;;;;;;;;;;5069039;28;20043;-69
2021/05/29 02:13:33;;;;;;;10.60;8.70;;;;;;;;;;5069974;28;20024;-69
2021/05/29 02:15:59;;;;;;;9.48;7.97;;;;;;;;;;5068463;28;20023;-67
2021/05/29 02:18:24;;;;;;;10.13;8.80;;;;;;;;;;5064695;28;20414;-69
2021/05/29 02:20:54;;;;;;;9.25;8.27;;;;;;;;;;5069998;28;20028;-69
2021/05/29 02:23:21;;;;;;;10.85;8.05;;;;;;;;;;5069909;28;20028;-69
2021/05/29 02:25:47;;;;;;;9.68;8.00;;;;;;;;;;5068824;28;20491;-68
2021/05/29 02:28:12;;;;;;;9.15;8.10;;;;;;;;;;5066103;28;20012;-67
2021/05/29 02:30:37;;;;;;;13.57;10.20;;;;;;;;;;5069079;28;20028;-68
2021/05/29 02:33:04;;;;;;;12.48;10.45;;;;;;;;;;5069094;28;20056;-69
2021/05/29 02:35:29;;;;;;;11.63;9.65;;;;;;;;;;5067063;28;20498;-69
2021/05/29 02:37:54;;;;;;;11.25;9.93;;;;;;;;;;5065181;28;20070;-68
2021/05/29 02:40:20;;;;;;;11.70;9.63;;;;;;;;;;5069644;28;20021;-68
2021/05/29 02:42:45;;;;;;;10.55;9.15;;;;;;;;;;5070044;28;20047;-69
2021/05/29 02:45:11;;;;;;;12.48;8.90;;;;;;;;;;5068691;28;20028;-69
2021/05/29 02:47:36;;;;;;;12.98;8.73;;;;;;;;;;5066605;28;20017;-69
2021/05/29 02:50:02;;;;;;;12.02;8.90;;;;;;;;;;5067804;28;20016;-69
2021/05/29 02:52:27;;;;;;;14.15;8.57;;;;;;;;;;5069113;28;20113;-70
2021/05/29 02:54:52;;;;;;;10.52;8.30;;;;;;;;;;5071725;28;20033;-67
2021/05/29 02:57:18;;;;;;;10.85;8.40;;;;;;;;;;5069622;28;20049;-69
2021/05/29 02:59:43;;;;;;;11.30;9.18;;;;;;;;;;5072244;28;20372;-69
2021/05/29 03:02:09;;;;;;;11.98;8.48;;;;;;;;;;5072523;28;20020;-68
2021/05/29 03:04:35;;;;;;;10.55;8.63;;;;;;;;;;5071471;28;20029;-68
2021/05/29 03:07:01;;;;;;;12.65;10.40;;;;;;;;;;5067969;28;20697;-68
2021/05/29 03:09:26;;;;;;;11.70;8.60;;;;;;;;;;5068495;28;20103;-68
2021/05/29 03:11:52;;;;;;;11.00;9.45;;;;;;;;;;5070462;28;20029;-69
2021/05/29 03:14:17;;;;;;;14.27;9.50;;;;;;;;;;5071640;28;20028;-66
2021/05/29 03:16:42;;;;;;;10.52;9.43;;;;;;;;;;5069615;28;20471;-69
2021/05/29 03:19:08;;;;;;;12.18;9.40;;;;;;;;;;5069910;28;20025;-69
2021/05/29 03:21:33;;;;;;;11.65;9.90;;;;;;;;;;5072130;28;20016;-68
2021/05/29 03:23:58;;;;;;;12.15;10.05;;;;;;;;;;5067603;28;20066;-69
2021/05/29 03:26:24;;;;;;;12.95;9.70;;;;;;;;;;5067705;28;20052;-69
2021/05/29 03:28:50;;;;;;;12.77;10.30;;;;;;;;;;5065208;28;20024;-69
2021/05/29 03:31:15;;;;;;;11.68;9.85;;;;;;;;;;5065189;28;20070;-70
2021/05/29 03:33:40;;;;;;;10.90;9.80;;;;;;;;;;5067446;28;20232;-69
2021/05/29 03:36:06;;;;;;;13.82;10.63;;;;;;;;;;5068381;28;20044;-69
2021/05/29 03:38:31;;;;;;;12.98;11.38;;;;;;;;;;5061729;28;20047;-69
2021/05/29 03:40:57;;;;;;;11.40;9.93;;;;;;;;;;5097006;28;20456;-69
2021/05/29 03:43:22;;;;;;;16.35;11.50;;;;;;;;;;5065132;28;20107;-69
2021/05/29 03:45:47;;;;;;;14.82;12.05;;;;;;;;;;5070453;28;20111;-69
2021/05/29 03:48:12;;;;;;;15.68;11.85;;;;;;;;;;5068558;28;20482;-69
2021/05/29 03:50:40;;;;;;;13.45;10.23;;;;;;;;;;5070845;28;20029;-70
2021/05/29 03:53:06;;;;;;;12.82;11.32;;;;;;;;;;5069535;28;20063;-69
2021/05/29 03:55:33;;;;;;;13.80;12.15;;;;;;;;;;5071659;28;20017;-69
2021/05/29 03:57:58;;;;;;;11.50;10.27;;;;;;;;;;5068853;28;20499;-70
2021/05/29 04:00:23;;;;;;;12.20;10.73;;;;;;;;;;5068403;28;20060;-69
2021/05/29 04:02:49;;;;;;;11.73;10.52;;;;;;;;;;5071947;28;20486;-70
2021/05/29 04:05:15;;;;;;;11.65;10.48;;;;;;;;;;5072145;28;20017;-70
2021/05/29 04:07:40;;;;;;;11.98;10.35;;;;;;;;;;5068009;28;20040;-69
2021/05/29 04:10:09;;;;;;;11.10;10.02;;;;;;;;;;5069800;28;20028;-69
2021/05/29 04:12:34;;;;;;;11.00;9.90;;;;;;;;;;5071425;28;20052;-69
2021/05/29 04:15:00;;;;;;;11.63;10.40;;;;;;;;;;5071187;28;20125;-69
2021/05/29 04:17:26;;;;;;;11.82;10.00;;;;;;;;;;5088369;28;20451;-69
2021/05/29 04:19:51;;;;;;;10.32;8.68;;;;;;;;;;5072010;28;20027;-69
2021/05/29 04:22:16;;;;;;;11.07;9.90;;;;;;;;;;5071574;28;20052;-69
2021/05/29 04:24:41;;;;;;;10.82;9.57;;;;;;;;;;5073610;28;20045;-69
2021/05/29 04:27:06;;;;;;;11.32;9.70;;;;;;;;;;5072219;28;20062;-69
2021/05/29 04:29:32;;;;;;;11.65;9.38;;;;;;;;;;5075406;28;20025;-69
2021/05/29 04:31:57;;;;;;;10.00;9.00;;;;;;;;;;5075336;28;20517;-69
2021/05/29 04:34:23;;;;;;;10.48;9.40;;;;;;;;;;5067112;28;20399;-67
2021/05/29 04:36:48;;;;;;;10.13;9.13;;;;;;;;;;5071520;28;20028;-69
2021/05/29 04:39:13;;;;;;;10.10;9.00;;;;;;;;;;5075018;28;20329;-70
2021/05/29 04:41:38;;;;;;;9.32;8.40;;;;;;;;;;5073748;28;20020;-70
2021/05/29 04:44:04;;;;;;;10.05;8.93;;;;;;;;;;5085983;28;20017;-69
2021/05/29 04:46:29;;;;;;;10.25;8.73;;;;;;;;;;5078856;28;20032;-67
2021/05/29 04:48:54;;;;;;;9.65;8.65;;;;;;;;;;5075319;28;20459;-70
2021/05/29 04:51:19;;;;;;;8.98;8.15;;;;;;;;;;5069210;28;20136;-70
2021/05/29 04:53:47;;;;;;;9.25;8.02;;;;;;;;;;5075159;28;20043;-67
2021/05/29 04:56:13;;;;;;;9.38;7.95;;;;;;;;;;5073929;28;20027;-67
2021/05/29 04:58:38;;;;;;;7.70;6.90;;;;;;;;;;5071594;28;20024;-69
2021/05/29 05:01:05;;;;;;;8.98;8.02;;;;;;;;;;5074721;28;20027;-69
2021/05/29 05:03:30;;;;;;;9.10;8.30;;;;;;;;;;5107701;28;20029;-69
2021/05/29 05:05:55;;;;;;;7.90;7.10;;;;;;;;;;5075228;28;20103;-69
2021/05/29 05:08:21;;;;;;;10.10;8.95;;;;;;;;;;5066875;28;20150;-69
2021/05/29 05:10:46;;;;;;;10.27;9.15;;;;;;;;;;5073075;28;20029;-70
2021/05/29 05:13:11;;;;;;;10.63;9.52;;;;;;;;;;5074638;28;20028;-69
2021/05/29 05:15:37;;;;;;;12.70;9.75;;;;;;;;;;5074390;28;20445;-70
2021/05/29 05:18:03;;;;;;;11.90;9.70;;;;;;;;;;5071033;28;20027;-70
2021/05/29 05:20:28;;;;;;;9.70;8.70;;;;;;;;;;5076266;28;20365;-68
2021/05/29 05:22:53;;;;;;;9.73;8.73;;;;;;;;;;5073333;28;20055;-67
2021/05/29 05:25:19;;;;;;;9.40;8.45;;;;;;;;;;5073393;28;20078;-68
2021/05/29 05:27:44;;;;;;;9.18;8.27;;;;;;;;;;5070669;28;20025;-69
2021/05/29 05:30:11;;;;;;;10.10;9.10;;;;;;;;;;5073958;28;20077;-68
2021/05/29 05:32:37;;;;;;;8.60;7.70;;;;;;;;;;5053789;28;20049;-69
2021/05/29 05:35:03;;;;;;;8.40;7.32;;;;;;;;;;5073633;28;20063;-69
2021/05/29 05:37:28;;;;;;;8.63;7.70;;;;;;;;;;5068840;28;20045;-69
2021/05/29 05:39:54;;;;;;;8.60;7.78;;;;;;;;;;5076851;28;20056;-69
2021/05/29 05:42:19;;;;;;;8.30;7.13;;;;;;;;;;5076095;28;20028;-70
2021/05/29 05:44:44;;;;;;;7.82;7.07;;;;;;;;;;5079891;28;20395;-70
2021/05/29 05:47:09;;;;;;;7.70;6.90;;;;;;;;;;5069097;28;20033;-69
2021/05/29 05:49:35;;;;;;;6.72;6.13;;;;;;;;;;5072626;28;20024;-70
2021/05/29 05:52:00;;;;;;;8.05;6.47;;;;;;;;;;5074022;28;20028;-70
2021/05/29 05:54:26;;;;;;;7.07;6.00;;;;;;;;;;5106185;28;20395;-67
2021/05/29 05:56:51;;;;;;;9.18;7.18;;;;;;;;;;5075048;28;20028;-69
2021/05/29 05:59:16;;;;;;;7.22;6.53;;;;;;;;;;5073749;28;20021;-70
2021/05/29 06:01:41;;;;;;;7.72;7.03;;;;;;;;;;5073728;28;20020;-69
2021/05/29 06:04:07;;;;;;;7.45;6.47;;;;;;;;;;5073846;28;20032;-69
2021/05/29 06:06:32;;;;;;;6.95;6.28;;;;;;;;;;5071244;28;20020;-68
2021/05/29 06:08:57;;;;;;;6.60;5.82;;;;;;;;;;5069789;28;20024;-68
2021/05/29 06:11:23;;;;;;;7.43;6.72;;;;;;;;;;5072760;28;20017;-67
2021/05/29 06:19:20;;;;;;;6.50;5.50;;;;;;;;;;5072308;28;20533;-70
2021/05/29 06:21:48;;;;;;;7.00;5.53;;;;;;;;;;5068893;28;20503;-69
2021/05/29 06:24:18;;;;;;;9.52;5.95;;;;;;;;;;5072291;28;20029;-69
2021/05/29 06:26:43;;;;;;;6.07;5.47;;;;;;;;;;5069451;28;20052;-69
2021/05/29 06:29:09;;;;;;;6.35;5.75;;;;;;;;;;5075014;28;20509;-68
2021/05/29 06:31:34;;;;;;;6.82;5.47;;;;;;;;;;5072215;28;20438;-70
2021/05/29 06:33:59;;;;;;;5.82;4.72;;;;;;;;;;5072989;28;20056;-70
2021/05/29 06:36:25;;;;;;;5.70;4.50;;;;;;;;;;5072573;28;20020;-70
2021/05/29 06:38:50;;;;;;;5.22;4.72;;;;;;;;;;5069762;28;20076;-70
2021/05/29 06:41:16;;;;;;;5.85;5.32;;;;;;;;;;5070269;28;20012;-69
2021/05/29 06:43:41;;;;;;;5.00;4.50;;;;;;;;;;5073659;28;20024;-70
2021/05/29 06:46:06;;;;;;;5.78;5.20;;;;;;;;;;5078044;28;20028;-69
2021/05/29 06:48:32;;;;;;;4.85;4.45;;;;;;;;;;5070117;28;20025;-70
2021/05/29 06:50:58;;;;;;;5.38;4.88;;;;;;;;;;5072195;28;20051;-69
2021/05/29 06:53:34;;;;;;;5.88;4.88;;;;;;;;;;5069725;28;20029;-69
2021/05/29 06:58:51;;;;;;;5.15;4.55;;;;;;;;;;5065046;28;20078;-69
2021/05/29 07:01:18;;;;;;;6.18;4.95;;;;;;;;;;5051625;28;20025;-70
2021/05/29 07:03:43;;;;;;;5.75;5.13;;;;;;;;;;5108932;27;20028;-67
2021/05/29 07:06:08;;;;;;;5.18;4.68;;;;;;;;;;5101088;28;20031;-70
2021/05/29 07:08:34;;;;;;;5.07;4.57;;;;;;;;;;5069397;28;20048;-69
2021/05/29 07:10:59;;;;;;;5.78;4.47;;;;;;;;;;5071310;28;20020;-69
2021/05/29 07:13:24;;;;;;;4.93;4.50;;;;;;;;;;5071278;28;20016;-69
2021/05/29 07:15:49;;;;;;;4.30;3.95;;;;;;;;;;5071781;28;20455;-70
2021/05/29 07:18:16;;;;;;;5.72;4.40;;;;;;;;;;5067876;28;20418;-70
2021/05/29 07:20:41;;;;;;;5.30;4.78;;;;;;;;;;5071175;28;20017;-69
2021/05/29 07:23:07;;;;;;;4.47;3.97;;;;;;;;;;5070325;28;20468;-70
2021/05/29 07:25:33;;;;;;;4.90;4.15;;;;;;;;;;5071636;28;20390;-69
2021/05/29 07:27:58;;;;;;;4.03;3.70;;;;;;;;;;5068363;28;20023;-70
2021/05/29 07:30:24;;;;;;;3.70;3.40;;;;;;;;;;5066144;28;20020;-69
2021/05/29 07:32:49;;;;;;;4.68;3.72;;;;;;;;;;5070222;28;20039;-70
2021/05/29 07:35:15;;;;;;;4.45;3.85;;;;;;;;;;5071843;28;20062;-70
2021/05/29 07:37:40;;;;;;;3.88;3.22;;;;;;;;;;5066571;28;20126;-69
2021/05/29 07:40:06;;;;;;;4.63;3.90;;;;;;;;;;5071799;28;20369;-69
2021/05/29 07:42:31;;;;;;;5.03;3.88;;;;;;;;;;5071195;28;20104;-68
2021/05/29 07:44:56;;;;;;;4.60;3.45;;;;;;;;;;5069529;28;20032;-69
2021/05/29 07:47:22;;;;;;;4.13;3.47;;;;;;;;;;5068663;28;20391;-69
2021/05/29 07:49:47;;;;;;;5.55;3.53;;;;;;;;;;5076944;28;20031;-69
2021/05/29 07:52:12;;;;;;;4.00;3.40;;;;;;;;;;5076145;28;20298;-69
2021/05/29 07:54:37;;;;;;;3.95;3.53;;;;;;;;;;5071253;28;20033;-69
2021/05/29 07:57:03;;;;;;;4.70;3.78;;;;;;;;;;5067766;28;20012;-70
2021/05/29 07:59:28;;;;;;;4.22;3.58;;;;;;;;;;5076884;28;20464;-70
2021/05/29 08:01:53;;;;;;;4.18;3.38;;;;;;;;;;5071895;28;20021;-69
2021/05/29 08:04:18;;;;;;;5.95;4.18;;;;;;;;;;5069795;28;20024;-70
2021/05/29 08:06:44;;;;;;;4.50;3.80;;;;;;;;;;5069064;28;20021;-70
2021/05/29 08:09:09;;;;;;;5.82;3.85;;;;;;;;;;5069266;28;20154;-70
2021/05/29 08:11:35;;;;;;;5.40;4.32;;;;;;;;;;5070746;28;20013;-70
2021/05/29 08:14:01;;;;;;;3.15;2.63;;;;;;;;;;5098890;28;20032;-69
2021/05/29 08:16:26;;;;;;;6.43;4.35;;;;;;;;;;5060773;28;20475;-68
2021/05/29 08:18:52;;;;;;;6.70;4.30;;;;;;;;;;5069438;28;20074;-69
2021/05/29 08:21:18;;;;;;;4.68;4.13;;;;;;;;;;5071719;28;20488;-68
2021/05/29 08:23:43;;;;;;;5.70;3.80;;;;;;;;;;5070726;28;20095;-69
2021/05/29 08:26:09;;;;;;;5.18;4.05;;;;;;;;;;5071369;28;20024;-68
2021/05/29 08:28:34;;;;;;;7.05;4.10;;;;;;;;;;5067820;28;20472;-69
2021/05/29 08:30:59;;;;;;;5.28;4.20;;;;;;;;;;5071070;28;20029;-69
2021/05/29 08:33:25;;;;;;;4.80;3.90;;;;;;;;;;5069189;28;20491;-68
2021/05/29 08:35:50;;;;;;;4.72;4.28;;;;;;;;;;5071661;28;20044;-69
2021/05/29 08:38:15;;;;;;;4.85;4.35;;;;;;;;;;5067938;28;20037;-69
2021/05/29 08:40:41;;;;;;;6.28;4.38;;;;;;;;;;5069812;28;20016;-69
2021/05/29 08:43:07;;;;;;;5.68;4.25;;;;;;;;;;5072088;28;20017;-70
2021/05/29 08:45:33;;;;;;;5.97;4.20;;;;;;;;;;5079184;28;20077;-70
2021/05/29 08:47:58;;;;;;;4.88;3.55;;;;;;;;;;5088641;28;20020;-70
2021/05/29 08:50:23;;;;;;;7.10;3.92;;;;;;;;;;5081870;28;20159;-69
2021/05/29 08:52:49;;;;;;;4.78;3.80;;;;;;;;;;5083352;28;20025;-69
2021/05/29 08:55:15;;;;;;;6.22;3.75;;;;;;;;;;5070730;28;20020;-70
2021/05/29 08:57:41;;;;;;;6.60;4.35;;;;;;;;;;5066888;28;20027;-69
2021/05/29 09:00:11;;;;;;;6.28;3.92;;;;;;;;;;5069730;28;20024;-69
2021/05/29 09:02:56;;;;;;;6.22;3.90;;;;;;;;;;5068296;28;20484;-69
2021/05/29 09:05:32;;;;;;;5.90;4.22;;;;;;;;;;5070673;28;20574;-70
2021/05/29 09:08:01;;;;;;;6.88;4.15;;;;;;;;;;5053856;28;20153;-69
2021/05/29 09:10:26;;;;;;;6.22;4.10;;;;;;;;;;5071961;28;20090;-69
2021/05/29 09:12:59;;;;;;;6.88;4.82;;;;;;;;;;5074787;28;21157;-69
2021/05/29 09:15:38;;;;;;;6.25;4.47;;;;;;;;;;5074089;28;20025;-69
2021/05/29 09:18:03;;;;;;;6.45;4.72;;;;;;;;;;5071036;28;20020;-70
2021/05/29 09:20:29;;;;;;;6.68;5.13;;;;;;;;;;5076375;28;20025;-69
2021/05/29 09:22:55;;;;;;;7.00;4.70;;;;;;;;;;5074831;28;20016;-70
2021/05/29 09:25:24;;;;;;;6.88;4.80;;;;;;;;;;5074853;28;20020;-70
2021/05/29 09:27:49;;;;;;;7.40;4.22;;;;;;;;;;5071596;28;20023;-68
2021/05/29 09:30:14;;;;;;;7.05;4.13;;;;;;;;;;5073599;28;20020;-69
2021/05/29 09:32:40;;;;;;;7.28;4.47;;;;;;;;;;5072533;28;20024;-70
2021/05/29 09:35:07;;;;;;;6.45;4.30;;;;;;;;;;5074184;28;20070;-70
2021/05/29 09:37:32;;;;;;;4.45;4.03;;;;;;;;;;5071466;28;20029;-68
2021/05/29 09:39:58;;;;;;;5.78;4.22;;;;;;;;;;5073810;28;20602;-68
2021/05/29 09:42:28;;;;;;;4.38;3.40;;;;;;;;;;5075030;28;20020;-68
2021/05/29 09:44:53;;;;;;;3.85;3.28;;;;;;;;;;5080624;28;20024;-67
2021/05/29 09:47:19;;;;;;;4.75;4.20;;;;;;;;;;5081702;28;20033;-69
2021/05/29 09:49:55;;;;;;;4.70;4.20;;;;;;;;;;5073641;28;20024;-70
2021/05/29 09:52:36;;;;;;;4.80;3.95;;;;;;;;;;5073824;28;20016;-68
2021/05/29 09:55:05;;;;;;;5.07;3.40;;;;;;;;;;5063756;28;20024;-68
2021/05/29 09:57:30;;;;;;;4.15;3.05;;;;;;;;;;5070836;28;20021;-69
2021/05/29 09:59:56;;;;;;;4.05;2.65;;;;;;;;;;5074152;28;20016;-68
2021/05/29 10:02:22;;;;;;;4.05;3.65;;;;;;;;;;5072077;28;20043;-69
2021/05/29 10:04:53;;;;;;;2.92;2.65;;;;;;;;;;5073211;28;20479;-69
2021/05/29 10:07:19;;;;;;;4.32;2.25;;;;;;;;;;5070743;28;20043;-69
2021/05/29 10:09:44;;;;;;;4.18;2.17;;;;;;;;;;5072962;28;20112;-69
2021/05/29 10:12:09;;;;;;;1.55;1.38;;;;;;;;;;5073411;28;20548;-69
2021/05/29 10:14:35;;;;;;;3.13;1.30;;;;;;;;;;5072508;28;20487;-69
2021/05/29 10:17:04;;;;;;;2.13;1.27;;;;;;;;;;5069280;28;20016;-69
2021/05/29 10:19:30;;;;;;;2.03;1.30;;;;;;;;;;5072762;28;20016;-69
2021/05/29 10:21:55;;;;;;;4.10;1.35;;;;;;;;;;5073025;28;20081;-69
2021/05/29 10:24:22;;;;;;;2.20;1.70;;;;;;;;;;5072722;28;20024;-69
2021/05/29 10:26:48;;;;;;;3.17;1.50;;;;;;;;;;5070222;28;20570;-70
2021/05/29 10:29:14;;;;;;;2.30;2.10;;;;;;;;;;5073055;28;20029;-69
2021/05/29 10:31:41;;;;;;;4.32;2.55;;;;;;;;;;5072408;28;20396;-69
2021/05/29 10:34:07;;;;;;;2.97;2.10;;;;;;;;;;5072344;28;20468;-69
2021/05/29 10:36:35;;;;;;;2.67;2.30;;;;;;;;;;5071109;28;20020;-70
2021/05/29 10:39:01;;;;;;;3.03;1.65;;;;;;;;;;5068175;28;20055;-70
2021/05/29 10:41:45;;;;;;;3.03;1.60;;;;;;;;;;5072338;28;20013;-69
2021/05/29 10:44:29;;;;;;;2.58;1.33;;;;;;;;;;5076147;28;20081;-69
2021/05/29 10:47:14;;;;;;;4.93;1.23;;;;;;;;;;5065061;28;20021;-70
2021/05/29 10:49:49;;;;;;;2.90;1.30;;;;;;;;;;5069083;28;20062;-68
2021/05/29 10:52:33;;;;;;;2.15;1.23;;;;;;;;;;5072594;28;20041;-69
2021/05/29 10:55:12;;;;;;;1.67;1.35;;;;;;;;;;5069527;28;20045;-70
2021/05/29 10:57:55;;;;;;;3.33;1.70;;;;;;;;;;5069749;28;20012;-70
2021/05/29 11:00:36;;;;;;;3.60;2.40;;;;;;;;;;5068194;28;20155;-70
2021/05/29 11:03:16;;;;;;;2.42;1.40;;;;;;;;;;5068736;28;20028;-69
2021/05/29 11:05:42;;;;;;;3.20;1.42;;;;;;;;;;5079320;28;20180;-69
2021/05/29 11:08:34;;;;;;;1.27;1.17;;;;;;;;;;5069784;28;20020;-68
2021/05/29 11:10:59;;;;;;;1.77;0.95;;;;;;;;;;5055686;28;20032;-69
2021/05/29 11:13:43;;;;;;;1.60;1.05;;;;;;;;;;5070896;28;20029;-72
2021/05/29 11:16:08;;;;;;;3.58;1.70;;;;;;;;;;5071902;28;20016;-68
2021/05/29 11:18:33;;;;;;;2.85;2.53;;;;;;;;;;5068553;28;20459;-68
2021/05/29 11:21:06;;;;;;;3.92;2.13;;;;;;;;;;5071979;28;20368;-69
2021/05/29 11:23:32;;;;;;;4.55;2.97;;;;;;;;;;5071123;28;20519;-69
2021/05/29 11:25:57;;;;;;;4.40;2.47;;;;;;;;;;5072144;28;20056;-68
2021/05/29 11:28:22;;;;;;;2.20;1.60;;;;;;;;;;5068773;28;20099;-70
2021/05/29 11:30:47;;;;;;;2.05;1.67;;;;;;;;;;5071676;28;20031;-69
2021/05/29 11:33:13;;;;;;;3.30;2.30;;;;;;;;;;5071321;28;20104;-69
2021/05/29 11:35:41;;;;;;;3.70;1.63;;;;;;;;;;5072219;28;20013;-69
2021/05/29 11:40:42;;;;;;;1.60;1.08;;;;;;;;;;5071258;28;20032;-69
2021/05/29 11:43:07;;;;;;;1.80;1.10;;;;;;;;;;5080854;28;20023;-68
2021/05/29 11:45:32;;;;;;;3.00;1.10;;;;;;;;;;5074437;28;20481;-69
2021/05/29 11:47:58;;;;;;;2.85;0.88;;;;;;;;;;5069427;28;20024;-68
2021/05/29 11:50:23;;;;;;;3.00;1.35;;;;;;;;;;5071241;28;20044;-69
2021/05/29 11:52:48;;;;;;;4.80;2.90;;;;;;;;;;5071814;28;20097;-69
2021/05/29 11:55:18;;;;;;;3.38;2.70;;;;;;;;;;5065459;28;20037;-69
2021/05/29 11:57:57;;;;;;;4.35;2.63;;;;;;;;;;5068181;28;20258;-69
2021/05/29 12:00:23;;;;;;;3.67;2.85;;;;;;;;;;5069216;28;20017;-68
2021/05/29 12:02:49;;;;;;;3.03;2.60;;;;;;;;;;5068995;28;20369;-69
2021/05/29 12:05:14;;;;;;;3.13;2.53;;;;;;;;;;5071695;28;20539;-69
2021/05/29 12:07:57;;;;;;;3.28;2.63;;;;;;;;;;5068822;28;20103;-69
2021/05/29 12:10:22;;;;;;;4.07;2.90;;;;;;;;;;5071073;28;20016;-70
2021/05/29 12:12:51;;;;;;;3.80;3.05;;;;;;;;;;5070800;28;20017;-69
2021/05/29 12:15:16;;;;;;;4.20;3.47;;;;;;;;;;5069483;28;20021;-69
2021/05/29 12:17:44;;;;;;;3.22;2.90;;;;;;;;;;5068349;28;20070;-70
2021/05/29 12:20:10;;;;;;;3.25;2.67;;;;;;;;;;5070769;28;20020;-70
2021/05/29 12:22:35;;;;;;;3.60;2.83;;;;;;;;;;5071082;28;20467;-68
2021/05/29 12:25:04;;;;;;;1.45;0.90;;;;;;;;;;5075127;28;20020;-69
2021/05/29 12:27:30;;;;;;;2.50;0.77;;;;;;;;;;5075025;28;20020;-68
2021/05/29 12:29:57;;;;;;;4.65;1.95;;;;;;;;;;5069175;28;20048;-68
2021/05/29 12:32:39;;;;;;;2.50;1.60;;;;;;;;;;5071781;28;20097;-68
2021/05/29 12:35:09;;;;;;;2.50;1.80;;;;;;;;;;5104313;28;20455;-69
2021/05/29 12:37:36;;;;;;;3.13;1.90;;;;;;;;;;5100253;28;20040;-68
2021/05/29 12:40:13;;;;;;;2.17;1.95;;;;;;;;;;5067202;28;20514;-69
2021/05/29 12:42:41;;;;;;;3.15;2.40;;;;;;;;;;5081232;28;20113;-68
2021/05/29 12:45:16;;;;;;;3.67;1.85;;;;;;;;;;5074911;28;20082;-69
2021/05/29 12:47:55;;;;;;;3.78;1.75;;;;;;;;;;5087675;28;20048;-68
2021/05/29 12:50:59;;;;;;;3.75;1.77;;;;;;;;;;5075177;28;20021;-69
2021/05/29 12:53:25;;;;;;;2.35;2.10;;;;;;;;;;5073393;28;20051;-68
2021/05/29 12:56:05;;;;;;;2.45;2.25;;;;;;;;;;5074903;28;20012;-69
2021/05/29 12:58:31;;;;;;;3.58;1.83;;;;;;;;;;5070766;28;20020;-69
2021/05/29 13:09:17;;;;;;;3.22;1.58;;;;;;;;;;5059421;28;20036;-69
2021/05/29 13:11:43;;;;;;;1.80;1.30;;;;;;;;;;5073200;28;20028;-69
2021/05/29 13:14:10;;;;;;;1.88;1.42;;;;;;;;;;5083248;28;20063;-70
2021/05/29 13:16:48;;;;;;;2.47;1.65;;;;;;;;;;5072768;28;20021;-69
2021/05/29 13:19:14;;;;;;;3.80;1.42;;;;;;;;;;5113362;27;20028;-69
2021/05/29 13:21:55;;;;;;;2.25;1.70;;;;;;;;;;5073713;28;20020;-70
2021/05/29 13:24:50;;;;;;;1.73;1.63;;;;;;;;;;5059285;28;20078;-70
2021/05/29 13:27:34;;;;;;;2.47;1.30;;;;;;;;;;5070866;28;20056;-68
2021/05/29 13:30:05;;;;;;;2.20;1.13;;;;;;;;;;5102267;27;20079;-67
2021/05/29 13:32:30;;;;;;;4.53;2.17;;;;;;;;;;5071281;28;20464;-68
2021/05/29 13:34:56;;;;;;;2.40;1.58;;;;;;;;;;5072579;28;20115;-68
2021/05/29 13:37:22;;;;;;;1.75;1.60;;;;;;;;;;5070814;28;20024;-68
2021/05/29 13:39:47;;;;;;;2.15;1.30;;;;;;;;;;5073230;28;20027;-69
2021/05/29 13:42:13;;;;;;;2.35;1.55;;;;;;;;;;5084611;28;20115;-70
2021/05/29 13:44:38;;;;;;;2.42;1.17;;;;;;;;;;5079084;28;20067;-68
2021/05/29 13:47:05;;;;;;;2.45;1.00;;;;;;;;;;5070736;28;20503;-69
2021/05/29 13:49:30;;;;;;;2.05;1.23;;;;;;;;;;5072372;28;20028;-69
2021/05/29 13:51:55;;;;;;;2.15;1.10;;;;;;;;;;5072348;28;20020;-67
2021/05/29 13:54:21;;;;;;;1.10;1.00;;;;;;;;;;5071514;28;20091;-69
2021/05/29 13:56:46;;;;;;;1.80;1.00;;;;;;;;;;5077377;28;20103;-69
2021/05/29 13:59:13;;;;;;;3.58;1.75;;;;;;;;;;5083486;28;20016;-69
2021/05/29 14:01:38;;;;;;;2.03;1.30;;;;;;;;;;5073687;28;20046;-69
2021/05/29 14:04:04;;;;;;;2.63;1.35;;;;;;;;;;5073290;28;20464;-67
2021/05/29 14:06:31;;;;;;;2.65;1.65;;;;;;;;;;5071453;28;20024;-70
2021/05/29 14:08:56;;;;;;;2.17;1.40;;;;;;;;;;5070462;28;20530;-67
2021/05/29 14:11:26;;;;;;;2.07;1.50;;;;;;;;;;5064523;28;20048;-68
2021/05/29 14:13:52;;;;;;;2.63;1.42;;;;;;;;;;5067004;28;20328;-69
2021/05/29 14:16:17;;;;;;;1.20;0.85;;;;;;;;;;5078404;28;20038;-69
2021/05/29 14:18:43;;;;;;;1.42;0.80;;;;;;;;;;5069386;28;20027;-69
2021/05/29 14:21:09;;;;;;;1.55;0.93;;;;;;;;;;5073706;28;20029;-70
2021/05/29 14:23:34;;;;;;;1.10;1.00;;;;;;;;;;5071207;28;20024;-69
2021/05/29 14:25:59;;;;;;;1.08;0.80;;;;;;;;;;5073308;28;20444;-69
2021/05/29 14:28:25;;;;;;;1.43;1.13;;;;;;;;;;5065880;28;20032;-69
2021/05/29 14:30:50;;;;;;;1.95;1.35;;;;;;;;;;5072613;28;20254;-69
2021/05/29 14:33:15;;;;;;;1.40;0.80;;;;;;;;;;5078761;28;20476;-68
2021/05/29 14:35:40;;;;;;;1.45;0.90;;;;;;;;;;5073218;28;20255;-69
2021/05/29 14:38:06;;;;;;;2.03;1.00;;;;;;;;;;5067518;28;20446;-69
2021/05/29 14:40:31;;;;;;;1.38;0.70;;;;;;;;;;5072547;28;20297;-69
2021/05/29 14:42:56;;;;;;;1.57;1.10;;;;;;;;;;5077531;28;20020;-69
2021/05/29 14:45:22;;;;;;;1.23;1.13;;;;;;;;;;5067564;28;20349;-69
2021/05/29 14:47:49;;;;;;;2.38;1.10;;;;;;;;;;5071423;28;20266;-69
2021/05/29 14:50:14;;;;;;;6.47;1.00;;;;;;;;;;5080121;28;20471;-70
2021/05/29 14:52:40;;;;;;;1.20;1.10;;;;;;;;;;5072207;28;20047;-69
2021/05/29 14:55:05;;;;;;;1.00;0.80;;;;;;;;;;5072829;28;20286;-68
2021/05/29 14:57:31;;;;;;;1.95;1.00;;;;;;;;;;5068941;28;20009;-69